sensor_id;sensor_type;location;lat;lon;timestamp;P1;durP1;ratioP1;P2;durP2;ratioP2
70953;SDS011;58618;47.490;8.736;2023-02-15T00:01:47;8.65;;;3.42;;
70953;SDS011;58618;47.490;8.736;2023-02-15T00:04:15;4.95;;;3.25;;
70953;SDS011;58618;47.490;8.736;2023-02-15T00:06:44;3.57;;;2.70;;
70953;SDS011;58618;47.490;8.736;2023-02-15T00:09:12;5.07;;;2.35;;
70953;SDS011;58618;47.490;8.736;2023-02-15T00:11:39;9.70;;;4.25;;
70953;SDS011;58618;47.490;8.736;2023-02-15T00:14:09;5.80;;;3.65;;
70953;SDS011;58618;47.490;8.736;2023-02-15T00:16:38;5.35;;;2.88;;
70953;SDS011;58618;47.490;8.736;2023-02-15T00:19:08;6.70;;;3.37;;
70953;SDS011;58618;47.490;8.736;2023-02-15T00:21:36;3.17;;;2.72;;
70953;SDS011;58618;47.490;8.736;2023-02-15T00:24:05;5.80;;;3.33;;
70953;SDS011;58618;47.490;8.736;2023-02-15T00:26:34;3.63;;;2.70;;
70953;SDS011;58618;47.490;8.736;2023-02-15T00:29:01;5.65;;;2.65;;
70953;SDS011;58618;47.490;8.736;2023-02-15T00:31:29;8.90;;;3.00;;
70953;SDS011;58618;47.490;8.736;2023-02-15T00:34:00;4.05;;;2.53;;
70953;SDS011;58618;47.490;8.736;2023-02-15T00:36:29;5.45;;;3.13;;
70953;SDS011;58618;47.490;8.736;2023-02-15T00:38:56;4.50;;;3.00;;
70953;SDS011;58618;47.490;8.736;2023-02-15T00:41:24;3.78;;;2.83;;
70953;SDS011;58618;47.490;8.736;2023-02-15T00:43:51;4.70;;;2.90;;
70953;SDS011;58618;47.490;8.736;2023-02-15T00:46:18;3.08;;;2.63;;
70953;SDS011;58618;47.490;8.736;2023-02-15T00:48:45;2.67;;;2.20;;
70953;SDS011;58618;47.490;8.736;2023-02-15T00:51:13;3.20;;;1.85;;
70953;SDS011;58618;47.490;8.736;2023-02-15T00:53:41;3.83;;;2.40;;
70953;SDS011;58618;47.490;8.736;2023-02-15T00:56:09;6.17;;;3.47;;
70953;SDS011;58618;47.490;8.736;2023-02-15T00:58:36;4.30;;;3.13;;
70953;SDS011;58618;47.490;8.736;2023-02-15T01:01:04;4.63;;;3.03;;
70953;SDS011;58618;47.490;8.736;2023-02-15T01:03:33;5.28;;;2.95;;
70953;SDS011;58618;47.490;8.736;2023-02-15T01:06:00;3.65;;;2.60;;
70953;SDS011;58618;47.490;8.736;2023-02-15T01:08:28;4.10;;;2.67;;
70953;SDS011;58618;47.490;8.736;2023-02-15T01:10:56;4.35;;;2.63;;
70953;SDS011;58618;47.490;8.736;2023-02-15T01:13:29;4.72;;;2.90;;
70953;SDS011;58618;47.490;8.736;2023-02-15T01:15:56;4.55;;;2.80;;
70953;SDS011;58618;47.490;8.736;2023-02-15T01:18:23;3.20;;;2.13;;
70953;SDS011;58618;47.490;8.736;2023-02-15T01:20:50;2.43;;;1.73;;
70953;SDS011;58618;47.490;8.736;2023-02-15T01:23:17;4.72;;;2.88;;
70953;SDS011;58618;47.490;8.736;2023-02-15T01:25:45;4.75;;;3.88;;
70953;SDS011;58618;47.490;8.736;2023-02-15T01:28:14;4.35;;;2.70;;
70953;SDS011;58618;47.490;8.736;2023-02-15T01:30:41;4.57;;;2.83;;
70953;SDS011;58618;47.490;8.736;2023-02-15T01:33:09;3.33;;;1.83;;
70953;SDS011;58618;47.490;8.736;2023-02-15T01:35:43;4.22;;;2.97;;
70953;SDS011;58618;47.490;8.736;2023-02-15T01:38:11;5.00;;;2.88;;
70953;SDS011;58618;47.490;8.736;2023-02-15T01:40:39;4.90;;;2.90;;
70953;SDS011;58618;47.490;8.736;2023-02-15T01:43:08;3.35;;;2.28;;
70953;SDS011;58618;47.490;8.736;2023-02-15T01:45:38;3.53;;;2.90;;
70953;SDS011;58618;47.490;8.736;2023-02-15T01:48:12;2.33;;;1.80;;
70953;SDS011;58618;47.490;8.736;2023-02-15T01:50:47;3.72;;;2.58;;
70953;SDS011;58618;47.490;8.736;2023-02-15T01:53:20;5.18;;;3.00;;
70953;SDS011;58618;47.490;8.736;2023-02-15T01:55:52;5.03;;;2.75;;
70953;SDS011;58618;47.490;8.736;2023-02-15T01:58:23;4.13;;;2.73;;
70953;SDS011;58618;47.490;8.736;2023-02-15T02:00:53;3.88;;;2.22;;
70953;SDS011;58618;47.490;8.736;2023-02-15T02:03:24;4.82;;;2.97;;
70953;SDS011;58618;47.490;8.736;2023-02-15T02:06:03;3.30;;;2.83;;
70953;SDS011;58618;47.490;8.736;2023-02-15T02:08:30;4.32;;;2.63;;
70953;SDS011;58618;47.490;8.736;2023-02-15T02:10:58;3.57;;;2.93;;
70953;SDS011;58618;47.490;8.736;2023-02-15T02:13:25;2.30;;;2.08;;
70953;SDS011;58618;47.490;8.736;2023-02-15T02:15:55;2.70;;;2.10;;
70953;SDS011;58618;47.490;8.736;2023-02-15T02:18:32;2.95;;;2.28;;
70953;SDS011;58618;47.490;8.736;2023-02-15T02:21:25;3.83;;;2.25;;
70953;SDS011;58618;47.490;8.736;2023-02-15T02:24:28;3.73;;;2.13;;
70953;SDS011;58618;47.490;8.736;2023-02-15T02:27:33;3.78;;;2.90;;
70953;SDS011;58618;47.490;8.736;2023-02-15T02:33:12;2.90;;;2.45;;
70953;SDS011;58618;47.490;8.736;2023-02-15T02:35:57;2.75;;;2.33;;
70953;SDS011;58618;47.490;8.736;2023-02-15T02:38:36;3.10;;;2.23;;
70953;SDS011;58618;47.490;8.736;2023-02-15T02:41:12;4.47;;;2.35;;
70953;SDS011;58618;47.490;8.736;2023-02-15T02:43:46;2.95;;;2.60;;
70953;SDS011;58618;47.490;8.736;2023-02-15T02:46:20;4.28;;;2.75;;
70953;SDS011;58618;47.490;8.736;2023-02-15T02:48:52;4.07;;;2.92;;
70953;SDS011;58618;47.490;8.736;2023-02-15T02:51:20;3.67;;;2.00;;
70953;SDS011;58618;47.490;8.736;2023-02-15T02:53:49;6.97;;;2.80;;
70953;SDS011;58618;47.490;8.736;2023-02-15T02:56:20;6.57;;;2.85;;
70953;SDS011;58618;47.490;8.736;2023-02-15T02:58:51;4.53;;;2.42;;
70953;SDS011;58618;47.490;8.736;2023-02-15T03:01:27;3.28;;;2.78;;
70953;SDS011;58618;47.490;8.736;2023-02-15T03:04:00;3.30;;;2.77;;
70953;SDS011;58618;47.490;8.736;2023-02-15T03:06:35;4.50;;;2.88;;
70953;SDS011;58618;47.490;8.736;2023-02-15T03:09:07;2.22;;;1.88;;
70953;SDS011;58618;47.490;8.736;2023-02-15T03:11:40;6.43;;;2.97;;
70953;SDS011;58618;47.490;8.736;2023-02-15T03:14:09;5.80;;;3.03;;
70953;SDS011;58618;47.490;8.736;2023-02-15T03:16:37;3.60;;;1.90;;
70953;SDS011;58618;47.490;8.736;2023-02-15T03:19:09;2.22;;;1.88;;
70953;SDS011;58618;47.490;8.736;2023-02-15T03:21:42;5.38;;;2.47;;
70953;SDS011;58618;47.490;8.736;2023-02-15T03:24:16;2.45;;;2.13;;
70953;SDS011;58618;47.490;8.736;2023-02-15T03:26:47;3.35;;;2.67;;
70953;SDS011;58618;47.490;8.736;2023-02-15T03:29:18;3.83;;;2.03;;
70953;SDS011;58618;47.490;8.736;2023-02-15T03:31:49;3.47;;;2.72;;
70953;SDS011;58618;47.490;8.736;2023-02-15T03:34:23;2.50;;;2.08;;
70953;SDS011;58618;47.490;8.736;2023-02-15T03:36:50;3.13;;;2.08;;
70953;SDS011;58618;47.490;8.736;2023-02-15T03:39:24;2.72;;;2.47;;
70953;SDS011;58618;47.490;8.736;2023-02-15T03:42:01;3.13;;;2.10;;
70953;SDS011;58618;47.490;8.736;2023-02-15T03:44:36;4.13;;;2.85;;
70953;SDS011;58618;47.490;8.736;2023-02-15T03:47:13;10.20;;;2.60;;
70953;SDS011;58618;47.490;8.736;2023-02-15T03:49:45;2.33;;;1.77;;
70953;SDS011;58618;47.490;8.736;2023-02-15T03:52:17;2.85;;;1.95;;
70953;SDS011;58618;47.490;8.736;2023-02-15T03:54:46;5.57;;;2.37;;
70953;SDS011;58618;47.490;8.736;2023-02-15T03:57:17;3.90;;;2.70;;
70953;SDS011;58618;47.490;8.736;2023-02-15T04:00:08;3.63;;;2.35;;
70953;SDS011;58618;47.490;8.736;2023-02-15T04:05:50;2.60;;;1.85;;
70953;SDS011;58618;47.490;8.736;2023-02-15T04:08:18;5.07;;;2.23;;
70953;SDS011;58618;47.490;8.736;2023-02-15T04:10:45;4.50;;;2.75;;
70953;SDS011;58618;47.490;8.736;2023-02-15T04:13:22;4.22;;;2.85;;
70953;SDS011;58618;47.490;8.736;2023-02-15T04:15:51;3.03;;;2.13;;
70953;SDS011;58618;47.490;8.736;2023-02-15T04:18:29;2.33;;;1.92;;
70953;SDS011;58618;47.490;8.736;2023-02-15T04:21:16;2.93;;;2.20;;
70953;SDS011;58618;47.490;8.736;2023-02-15T04:24:00;2.63;;;1.33;;
70953;SDS011;58618;47.490;8.736;2023-02-15T04:26:45;3.13;;;2.53;;
70953;SDS011;58618;47.490;8.736;2023-02-15T04:29:13;2.70;;;1.65;;
70953;SDS011;58618;47.490;8.736;2023-02-15T04:31:41;5.05;;;2.47;;
70953;SDS011;58618;47.490;8.736;2023-02-15T04:34:09;3.63;;;2.93;;
70953;SDS011;58618;47.490;8.736;2023-02-15T04:36:38;5.50;;;2.95;;
70953;SDS011;58618;47.490;8.736;2023-02-15T04:39:06;2.83;;;2.17;;
70953;SDS011;58618;47.490;8.736;2023-02-15T04:41:34;3.42;;;2.65;;
70953;SDS011;58618;47.490;8.736;2023-02-15T04:44:02;4.35;;;2.90;;
70953;SDS011;58618;47.490;8.736;2023-02-15T04:46:29;4.27;;;2.47;;
70953;SDS011;58618;47.490;8.736;2023-02-15T04:48:57;4.10;;;2.08;;
70953;SDS011;58618;47.490;8.736;2023-02-15T04:51:24;2.28;;;2.08;;
70953;SDS011;58618;47.490;8.736;2023-02-15T04:53:53;4.40;;;2.95;;
70953;SDS011;58618;47.490;8.736;2023-02-15T04:56:20;3.55;;;2.67;;
70953;SDS011;58618;47.490;8.736;2023-02-15T04:58:47;1.90;;;1.73;;
70953;SDS011;58618;47.490;8.736;2023-02-15T05:01:15;3.92;;;2.55;;
70953;SDS011;58618;47.490;8.736;2023-02-15T05:03:42;4.65;;;3.05;;
70953;SDS011;58618;47.490;8.736;2023-02-15T05:06:09;6.15;;;2.42;;
70953;SDS011;58618;47.490;8.736;2023-02-15T05:08:36;4.43;;;3.15;;
70953;SDS011;58618;47.490;8.736;2023-02-15T05:11:04;2.00;;;1.80;;
70953;SDS011;58618;47.490;8.736;2023-02-15T05:13:31;2.50;;;2.13;;
70953;SDS011;58618;47.490;8.736;2023-02-15T05:15:59;6.65;;;3.08;;
70953;SDS011;58618;47.490;8.736;2023-02-15T05:18:26;4.45;;;3.33;;
70953;SDS011;58618;47.490;8.736;2023-02-15T05:20:54;5.53;;;3.30;;
70953;SDS011;58618;47.490;8.736;2023-02-15T05:23:21;3.90;;;2.77;;
70953;SDS011;58618;47.490;8.736;2023-02-15T05:25:48;6.25;;;3.13;;
70953;SDS011;58618;47.490;8.736;2023-02-15T05:28:35;3.33;;;2.50;;
70953;SDS011;58618;47.490;8.736;2023-02-15T05:31:04;3.88;;;2.42;;
70953;SDS011;58618;47.490;8.736;2023-02-15T05:33:36;3.00;;;2.05;;
70953;SDS011;58618;47.490;8.736;2023-02-15T05:36:04;4.50;;;2.43;;
70953;SDS011;58618;47.490;8.736;2023-02-15T05:38:33;4.78;;;1.90;;
70953;SDS011;58618;47.490;8.736;2023-02-15T05:41:02;5.70;;;3.38;;
70953;SDS011;58618;47.490;8.736;2023-02-15T05:43:30;4.05;;;2.45;;
70953;SDS011;58618;47.490;8.736;2023-02-15T05:45:58;5.57;;;3.17;;
70953;SDS011;58618;47.490;8.736;2023-02-15T05:48:26;6.00;;;2.73;;
70953;SDS011;58618;47.490;8.736;2023-02-15T05:50:57;3.85;;;2.75;;
70953;SDS011;58618;47.490;8.736;2023-02-15T05:53:25;3.22;;;2.03;;
70953;SDS011;58618;47.490;8.736;2023-02-15T05:55:53;2.90;;;2.38;;
70953;SDS011;58618;47.490;8.736;2023-02-15T05:58:24;3.85;;;2.80;;
70953;SDS011;58618;47.490;8.736;2023-02-15T06:00:52;11.77;;;3.93;;
70953;SDS011;58618;47.490;8.736;2023-02-15T06:03:21;2.75;;;2.45;;
70953;SDS011;58618;47.490;8.736;2023-02-15T06:05:49;5.28;;;2.53;;
70953;SDS011;58618;47.490;8.736;2023-02-15T06:08:16;5.72;;;2.70;;
70953;SDS011;58618;47.490;8.736;2023-02-15T06:10:44;3.58;;;2.20;;
70953;SDS011;58618;47.490;8.736;2023-02-15T06:13:11;2.40;;;1.97;;
70953;SDS011;58618;47.490;8.736;2023-02-15T06:15:38;3.83;;;2.70;;
70953;SDS011;58618;47.490;8.736;2023-02-15T06:18:06;5.00;;;3.42;;
70953;SDS011;58618;47.490;8.736;2023-02-15T06:20:34;3.40;;;2.40;;
70953;SDS011;58618;47.490;8.736;2023-02-15T06:23:01;2.85;;;2.55;;
70953;SDS011;58618;47.490;8.736;2023-02-15T06:25:28;1.87;;;1.57;;
70953;SDS011;58618;47.490;8.736;2023-02-15T06:27:55;3.33;;;2.40;;
70953;SDS011;58618;47.490;8.736;2023-02-15T06:30:22;2.88;;;2.00;;
70953;SDS011;58618;47.490;8.736;2023-02-15T06:32:50;4.35;;;2.20;;
70953;SDS011;58618;47.490;8.736;2023-02-15T06:35:17;2.92;;;2.60;;
70953;SDS011;58618;47.490;8.736;2023-02-15T06:37:46;3.77;;;2.97;;
70953;SDS011;58618;47.490;8.736;2023-02-15T06:40:13;2.40;;;1.65;;
70953;SDS011;58618;47.490;8.736;2023-02-15T06:42:40;2.38;;;2.17;;
70953;SDS011;58618;47.490;8.736;2023-02-15T06:45:08;3.55;;;2.53;;
70953;SDS011;58618;47.490;8.736;2023-02-15T06:47:36;3.08;;;2.63;;
70953;SDS011;58618;47.490;8.736;2023-02-15T06:50:04;5.93;;;3.30;;
70953;SDS011;58618;47.490;8.736;2023-02-15T06:52:33;2.10;;;1.52;;
70953;SDS011;58618;47.490;8.736;2023-02-15T06:55:01;5.43;;;2.20;;
70953;SDS011;58618;47.490;8.736;2023-02-15T06:57:28;2.05;;;1.38;;
70953;SDS011;58618;47.490;8.736;2023-02-15T06:59:56;2.28;;;2.00;;
70953;SDS011;58618;47.490;8.736;2023-02-15T07:02:24;2.90;;;1.40;;
70953;SDS011;58618;47.490;8.736;2023-02-15T07:04:51;6.03;;;3.15;;
70953;SDS011;58618;47.490;8.736;2023-02-15T07:07:22;6.05;;;2.92;;
70953;SDS011;58618;47.490;8.736;2023-02-15T07:09:50;3.63;;;2.08;;
70953;SDS011;58618;47.490;8.736;2023-02-15T07:12:19;2.92;;;2.25;;
70953;SDS011;58618;47.490;8.736;2023-02-15T07:15:22;7.07;;;2.23;;
70953;SDS011;58618;47.490;8.736;2023-02-15T07:17:50;5.68;;;2.95;;
70953;SDS011;58618;47.490;8.736;2023-02-15T07:20:19;3.13;;;2.00;;
70953;SDS011;58618;47.490;8.736;2023-02-15T07:22:49;3.30;;;1.92;;
70953;SDS011;58618;47.490;8.736;2023-02-15T07:25:16;3.72;;;2.88;;
70953;SDS011;58618;47.490;8.736;2023-02-15T07:27:46;5.30;;;3.13;;
70953;SDS011;58618;47.490;8.736;2023-02-15T07:30:14;3.25;;;2.17;;
70953;SDS011;58618;47.490;8.736;2023-02-15T07:32:42;6.00;;;3.15;;
70953;SDS011;58618;47.490;8.736;2023-02-15T07:35:33;3.55;;;2.22;;
70953;SDS011;58618;47.490;8.736;2023-02-15T07:38:01;4.63;;;3.03;;
70953;SDS011;58618;47.490;8.736;2023-02-15T07:40:28;5.27;;;2.27;;
70953;SDS011;58618;47.490;8.736;2023-02-15T07:42:58;2.60;;;2.40;;
70953;SDS011;58618;47.490;8.736;2023-02-15T07:45:25;3.78;;;2.28;;
70953;SDS011;58618;47.490;8.736;2023-02-15T07:47:52;2.25;;;2.00;;
70953;SDS011;58618;47.490;8.736;2023-02-15T07:50:20;3.00;;;2.70;;
70953;SDS011;58618;47.490;8.736;2023-02-15T07:52:48;6.90;;;2.83;;
70953;SDS011;58618;47.490;8.736;2023-02-15T07:55:15;3.85;;;2.70;;
70953;SDS011;58618;47.490;8.736;2023-02-15T07:57:42;3.47;;;2.67;;
70953;SDS011;58618;47.490;8.736;2023-02-15T08:00:13;2.97;;;2.28;;
70953;SDS011;58618;47.490;8.736;2023-02-15T08:02:41;3.85;;;2.20;;
70953;SDS011;58618;47.490;8.736;2023-02-15T08:05:08;7.70;;;3.17;;
70953;SDS011;58618;47.490;8.736;2023-02-15T08:07:36;2.17;;;1.88;;
70953;SDS011;58618;47.490;8.736;2023-02-15T08:10:03;3.53;;;2.45;;
70953;SDS011;58618;47.490;8.736;2023-02-15T08:12:31;4.63;;;2.45;;
70953;SDS011;58618;47.490;8.736;2023-02-15T08:14:58;4.32;;;2.60;;
70953;SDS011;58618;47.490;8.736;2023-02-15T08:17:27;3.80;;;2.83;;
70953;SDS011;58618;47.490;8.736;2023-02-15T08:19:54;4.50;;;2.20;;
70953;SDS011;58618;47.490;8.736;2023-02-15T08:22:21;4.43;;;3.10;;
70953;SDS011;58618;47.490;8.736;2023-02-15T08:24:48;3.50;;;2.42;;
70953;SDS011;58618;47.490;8.736;2023-02-15T08:27:16;3.13;;;2.53;;
70953;SDS011;58618;47.490;8.736;2023-02-15T08:29:44;4.40;;;2.80;;
70953;SDS011;58618;47.490;8.736;2023-02-15T08:32:11;5.78;;;3.55;;
70953;SDS011;58618;47.490;8.736;2023-02-15T08:34:41;5.72;;;3.22;;
70953;SDS011;58618;47.490;8.736;2023-02-15T08:37:08;5.13;;;2.63;;
70953;SDS011;58618;47.490;8.736;2023-02-15T08:39:35;3.28;;;2.67;;
70953;SDS011;58618;47.490;8.736;2023-02-15T08:42:03;5.87;;;3.40;;
70953;SDS011;58618;47.490;8.736;2023-02-15T08:44:30;4.35;;;2.35;;
70953;SDS011;58618;47.490;8.736;2023-02-15T08:47:01;4.95;;;2.42;;
70953;SDS011;58618;47.490;8.736;2023-02-15T08:49:29;4.70;;;3.25;;
70953;SDS011;58618;47.490;8.736;2023-02-15T08:51:58;7.80;;;3.53;;
70953;SDS011;58618;47.490;8.736;2023-02-15T08:54:25;3.57;;;2.60;;
70953;SDS011;58618;47.490;8.736;2023-02-15T08:56:52;6.95;;;3.17;;
70953;SDS011;58618;47.490;8.736;2023-02-15T08:59:20;4.70;;;2.90;;
70953;SDS011;58618;47.490;8.736;2023-02-15T09:01:49;5.17;;;3.50;;
70953;SDS011;58618;47.490;8.736;2023-02-15T09:04:17;6.22;;;3.83;;
70953;SDS011;58618;47.490;8.736;2023-02-15T09:06:45;9.43;;;3.50;;
70953;SDS011;58618;47.490;8.736;2023-02-15T09:09:22;3.88;;;3.05;;
70953;SDS011;58618;47.490;8.736;2023-02-15T09:11:50;5.97;;;3.97;;
70953;SDS011;58618;47.490;8.736;2023-02-15T09:14:21;6.03;;;3.73;;
70953;SDS011;58618;47.490;8.736;2023-02-15T09:16:51;6.20;;;3.03;;
70953;SDS011;58618;47.490;8.736;2023-02-15T09:19:20;5.50;;;3.10;;
70953;SDS011;58618;47.490;8.736;2023-02-15T09:21:49;3.97;;;3.28;;
70953;SDS011;58618;47.490;8.736;2023-02-15T09:24:17;6.10;;;3.28;;
70953;SDS011;58618;47.490;8.736;2023-02-15T09:26:47;3.60;;;2.30;;
70953;SDS011;58618;47.490;8.736;2023-02-15T09:29:15;5.95;;;3.10;;
70953;SDS011;58618;47.490;8.736;2023-02-15T09:31:44;4.40;;;2.78;;
70953;SDS011;58618;47.490;8.736;2023-02-15T09:34:15;5.90;;;3.20;;
70953;SDS011;58618;47.490;8.736;2023-02-15T09:36:44;6.53;;;3.63;;
70953;SDS011;58618;47.490;8.736;2023-02-15T09:39:13;6.07;;;3.83;;
70953;SDS011;58618;47.490;8.736;2023-02-15T09:41:46;6.47;;;3.97;;
70953;SDS011;58618;47.490;8.736;2023-02-15T09:44:33;4.60;;;3.15;;
70953;SDS011;58618;47.490;8.736;2023-02-15T09:47:14;4.43;;;2.72;;
70953;SDS011;58618;47.490;8.736;2023-02-15T09:52:59;6.47;;;3.43;;
70953;SDS011;58618;47.490;8.736;2023-02-15T09:55:44;5.32;;;3.83;;
70953;SDS011;58618;47.490;8.736;2023-02-15T09:58:21;6.28;;;3.50;;
70953;SDS011;58618;47.490;8.736;2023-02-15T10:01:00;5.78;;;4.25;;
70953;SDS011;58618;47.490;8.736;2023-02-15T10:03:36;6.78;;;3.78;;
70953;SDS011;58618;47.490;8.736;2023-02-15T10:06:20;7.97;;;3.63;;
70953;SDS011;58618;47.490;8.736;2023-02-15T10:09:02;7.43;;;4.28;;
70953;SDS011;58618;47.490;8.736;2023-02-15T10:11:41;5.78;;;3.92;;
70953;SDS011;58618;47.490;8.736;2023-02-15T10:14:27;7.13;;;4.95;;
70953;SDS011;58618;47.490;8.736;2023-02-15T10:17:11;6.93;;;3.58;;
70953;SDS011;58618;47.490;8.736;2023-02-15T10:19:52;5.13;;;3.50;;
70953;SDS011;58618;47.490;8.736;2023-02-15T10:22:35;5.50;;;3.58;;
70953;SDS011;58618;47.490;8.736;2023-02-15T10:25:20;5.90;;;3.83;;
70953;SDS011;58618;47.490;8.736;2023-02-15T10:27:57;5.65;;;3.47;;
70953;SDS011;58618;47.490;8.736;2023-02-15T10:30:35;6.22;;;4.18;;
70953;SDS011;58618;47.490;8.736;2023-02-15T10:33:14;6.07;;;3.37;;
70953;SDS011;58618;47.490;8.736;2023-02-15T10:35:55;8.18;;;4.93;;
70953;SDS011;58618;47.490;8.736;2023-02-15T10:38:35;7.22;;;4.25;;
70953;SDS011;58618;47.490;8.736;2023-02-15T10:41:11;7.20;;;4.05;;
70953;SDS011;58618;47.490;8.736;2023-02-15T10:43:56;7.50;;;4.53;;
70953;SDS011;58618;47.490;8.736;2023-02-15T10:46:39;7.77;;;3.50;;
70953;SDS011;58618;47.490;8.736;2023-02-15T10:49:41;7.53;;;4.68;;
70953;SDS011;58618;47.490;8.736;2023-02-15T10:52:21;6.45;;;4.35;;
70953;SDS011;58618;47.490;8.736;2023-02-15T10:54:58;6.53;;;4.30;;
70953;SDS011;58618;47.490;8.736;2023-02-15T10:57:40;7.68;;;4.72;;
70953;SDS011;58618;47.490;8.736;2023-02-15T11:00:19;8.83;;;4.00;;
70953;SDS011;58618;47.490;8.736;2023-02-15T11:02:57;7.05;;;4.85;;
70953;SDS011;58618;47.490;8.736;2023-02-15T11:05:38;7.18;;;4.53;;
70953;SDS011;58618;47.490;8.736;2023-02-15T11:08:14;6.68;;;4.60;;
70953;SDS011;58618;47.490;8.736;2023-02-15T11:10:44;7.70;;;4.53;;
70953;SDS011;58618;47.490;8.736;2023-02-15T11:13:17;10.27;;;4.83;;
70953;SDS011;58618;47.490;8.736;2023-02-15T11:15:47;8.75;;;4.60;;
70953;SDS011;58618;47.490;8.736;2023-02-15T11:18:21;10.10;;;4.93;;
70953;SDS011;58618;47.490;8.736;2023-02-15T11:20:54;7.13;;;4.50;;
70953;SDS011;58618;47.490;8.736;2023-02-15T11:23:26;7.53;;;4.47;;
70953;SDS011;58618;47.490;8.736;2023-02-15T11:25:57;9.67;;;4.87;;
70953;SDS011;58618;47.490;8.736;2023-02-15T11:28:28;6.80;;;4.53;;
70953;SDS011;58618;47.490;8.736;2023-02-15T11:31:00;8.15;;;4.60;;
70953;SDS011;58618;47.490;8.736;2023-02-15T11:33:42;6.97;;;3.95;;
70953;SDS011;58618;47.490;8.736;2023-02-15T11:36:13;10.73;;;5.82;;
70953;SDS011;58618;47.490;8.736;2023-02-15T11:38:44;7.23;;;4.37;;
70953;SDS011;58618;47.490;8.736;2023-02-15T11:41:16;6.88;;;4.05;;
70953;SDS011;58618;47.490;8.736;2023-02-15T11:43:48;11.10;;;5.03;;
70953;SDS011;58618;47.490;8.736;2023-02-15T11:46:20;10.35;;;4.57;;
70953;SDS011;58618;47.490;8.736;2023-02-15T11:48:48;7.43;;;4.50;;
70953;SDS011;58618;47.490;8.736;2023-02-15T11:51:16;8.40;;;4.57;;
70953;SDS011;58618;47.490;8.736;2023-02-15T11:53:47;9.15;;;4.63;;
70953;SDS011;58618;47.490;8.736;2023-02-15T11:56:16;8.80;;;4.90;;
70953;SDS011;58618;47.490;8.736;2023-02-15T11:58:45;7.22;;;3.83;;
70953;SDS011;58618;47.490;8.736;2023-02-15T12:01:16;9.77;;;5.55;;
70953;SDS011;58618;47.490;8.736;2023-02-15T12:03:51;11.00;;;4.73;;
70953;SDS011;58618;47.490;8.736;2023-02-15T12:06:23;8.00;;;4.80;;
70953;SDS011;58618;47.490;8.736;2023-02-15T12:08:59;8.70;;;5.22;;
70953;SDS011;58618;47.490;8.736;2023-02-15T12:11:33;7.57;;;4.70;;
70953;SDS011;58618;47.490;8.736;2023-02-15T12:14:04;9.07;;;5.03;;
70953;SDS011;58618;47.490;8.736;2023-02-15T12:16:33;8.57;;;5.03;;
70953;SDS011;58618;47.490;8.736;2023-02-15T12:19:11;7.25;;;4.20;;
70953;SDS011;58618;47.490;8.736;2023-02-15T12:21:49;8.50;;;5.25;;
70953;SDS011;58618;47.490;8.736;2023-02-15T12:24:20;7.43;;;4.95;;
70953;SDS011;58618;47.490;8.736;2023-02-15T12:26:56;9.32;;;5.28;;
70953;SDS011;58618;47.490;8.736;2023-02-15T12:29:29;10.23;;;4.80;;
70953;SDS011;58618;47.490;8.736;2023-02-15T12:32:00;7.68;;;5.05;;
70953;SDS011;58618;47.490;8.736;2023-02-15T12:34:30;10.23;;;4.53;;
70953;SDS011;58618;47.490;8.736;2023-02-15T12:37:09;8.35;;;4.63;;
70953;SDS011;58618;47.490;8.736;2023-02-15T12:39:50;8.93;;;5.30;;
70953;SDS011;58618;47.490;8.736;2023-02-15T12:42:19;9.10;;;4.87;;
70953;SDS011;58618;47.490;8.736;2023-02-15T12:44:54;11.68;;;6.07;;
70953;SDS011;58618;47.490;8.736;2023-02-15T12:47:26;11.35;;;6.28;;
70953;SDS011;58618;47.490;8.736;2023-02-15T12:50:08;10.32;;;5.80;;
70953;SDS011;58618;47.490;8.736;2023-02-15T12:52:48;10.80;;;5.10;;
70953;SDS011;58618;47.490;8.736;2023-02-15T12:55:21;10.90;;;5.20;;
70953;SDS011;58618;47.490;8.736;2023-02-15T12:58:04;11.68;;;5.50;;
70953;SDS011;58618;47.490;8.736;2023-02-15T13:00:35;8.73;;;5.13;;
70953;SDS011;58618;47.490;8.736;2023-02-15T13:03:02;10.55;;;5.22;;
70953;SDS011;58618;47.490;8.736;2023-02-15T13:05:33;9.55;;;5.30;;
70953;SDS011;58618;47.490;8.736;2023-02-15T13:08:08;6.63;;;4.63;;
70953;SDS011;58618;47.490;8.736;2023-02-15T13:10:40;12.63;;;5.97;;
70953;SDS011;58618;47.490;8.736;2023-02-15T13:13:10;11.90;;;6.10;;
70953;SDS011;58618;47.490;8.736;2023-02-15T13:15:44;10.00;;;5.95;;
70953;SDS011;58618;47.490;8.736;2023-02-15T13:18:16;10.98;;;6.07;;
70953;SDS011;58618;47.490;8.736;2023-02-15T13:20:48;9.30;;;5.23;;
70953;SDS011;58618;47.490;8.736;2023-02-15T13:23:21;8.82;;;5.22;;
70953;SDS011;58618;47.490;8.736;2023-02-15T13:25:54;10.02;;;5.45;;
70953;SDS011;58618;47.490;8.736;2023-02-15T13:28:25;9.70;;;5.63;;
70953;SDS011;58618;47.490;8.736;2023-02-15T13:31:00;9.88;;;6.03;;
70953;SDS011;58618;47.490;8.736;2023-02-15T13:33:30;17.27;;;5.53;;
70953;SDS011;58618;47.490;8.736;2023-02-15T13:36:03;9.75;;;5.18;;
70953;SDS011;58618;47.490;8.736;2023-02-15T13:38:41;10.35;;;5.90;;
70953;SDS011;58618;47.490;8.736;2023-02-15T13:41:19;9.80;;;5.22;;
70953;SDS011;58618;47.490;8.736;2023-02-15T13:43:54;11.93;;;6.28;;
70953;SDS011;58618;47.490;8.736;2023-02-15T13:46:33;11.50;;;5.97;;
70953;SDS011;58618;47.490;8.736;2023-02-15T13:49:14;8.85;;;5.03;;
70953;SDS011;58618;47.490;8.736;2023-02-15T13:51:55;11.23;;;5.45;;
70953;SDS011;58618;47.490;8.736;2023-02-15T13:54:39;11.25;;;6.00;;
70953;SDS011;58618;47.490;8.736;2023-02-15T13:57:33;10.73;;;5.63;;
70953;SDS011;58618;47.490;8.736;2023-02-15T14:00:21;8.57;;;5.17;;
70953;SDS011;58618;47.490;8.736;2023-02-15T14:03:03;10.35;;;6.22;;
70953;SDS011;58618;47.490;8.736;2023-02-15T14:05:45;13.43;;;5.75;;
70953;SDS011;58618;47.490;8.736;2023-02-15T14:08:26;10.32;;;5.63;;
70953;SDS011;58618;47.490;8.736;2023-02-15T14:11:07;11.98;;;6.03;;
70953;SDS011;58618;47.490;8.736;2023-02-15T14:13:46;9.77;;;5.03;;
70953;SDS011;58618;47.490;8.736;2023-02-15T14:16:31;9.13;;;4.78;;
70953;SDS011;58618;47.490;8.736;2023-02-15T14:19:09;10.82;;;5.90;;
70953;SDS011;58618;47.490;8.736;2023-02-15T14:21:47;9.52;;;5.50;;
70953;SDS011;58618;47.490;8.736;2023-02-15T14:24:26;11.82;;;5.72;;
70953;SDS011;58618;47.490;8.736;2023-02-15T14:27:04;10.20;;;5.87;;
70953;SDS011;58618;47.490;8.736;2023-02-15T14:29:50;11.63;;;5.70;;
70953;SDS011;58618;47.490;8.736;2023-02-15T14:32:24;9.13;;;5.43;;
70953;SDS011;58618;47.490;8.736;2023-02-15T14:34:57;9.65;;;5.30;;
70953;SDS011;58618;47.490;8.736;2023-02-15T14:37:30;10.57;;;5.63;;
70953;SDS011;58618;47.490;8.736;2023-02-15T14:40:08;9.77;;;5.73;;
70953;SDS011;58618;47.490;8.736;2023-02-15T14:43:04;9.32;;;5.07;;
70953;SDS011;58618;47.490;8.736;2023-02-15T14:45:39;7.88;;;4.97;;
70953;SDS011;58618;47.490;8.736;2023-02-15T14:48:24;9.52;;;5.00;;
70953;SDS011;58618;47.490;8.736;2023-02-15T14:50:56;9.93;;;5.90;;
70953;SDS011;58618;47.490;8.736;2023-02-15T14:53:33;10.43;;;5.90;;
70953;SDS011;58618;47.490;8.736;2023-02-15T14:58:55;11.43;;;6.00;;
70953;SDS011;58618;47.490;8.736;2023-02-15T15:01:25;8.90;;;5.03;;
70953;SDS011;58618;47.490;8.736;2023-02-15T15:03:55;8.88;;;5.22;;
70953;SDS011;58618;47.490;8.736;2023-02-15T15:06:25;10.77;;;5.90;;
70953;SDS011;58618;47.490;8.736;2023-02-15T15:08:55;10.25;;;5.57;;
70953;SDS011;58618;47.490;8.736;2023-02-15T15:11:47;9.73;;;5.63;;
70953;SDS011;58618;47.490;8.736;2023-02-15T15:14:36;10.73;;;5.35;;
70953;SDS011;58618;47.490;8.736;2023-02-15T15:17:10;9.18;;;4.65;;
70953;SDS011;58618;47.490;8.736;2023-02-15T15:22:31;10.20;;;5.93;;
70953;SDS011;58618;47.490;8.736;2023-02-15T15:25:01;8.88;;;5.78;;
70953;SDS011;58618;47.490;8.736;2023-02-15T15:27:44;12.43;;;6.00;;
70953;SDS011;58618;47.490;8.736;2023-02-15T15:33:22;11.13;;;5.13;;
70953;SDS011;58618;47.490;8.736;2023-02-15T15:36:14;9.30;;;5.32;;